Itacoatiara, Brazil
Current Conditions -  °F | °C
As of 11:00 AM on Friday 24 Oct 2014 (Local Time) from SBIC Reporting Station
Broken Clouds Broken Clouds  
Wind Chill: 88°   Ceiling: 2000
Heat Index: 102°   Visibility: 6mi
Dew Point: 79°   Wind: 5mph
Humidity: 75%   Direction: 10°N
Pressure: 29.88"   Gusts: NA
Location:  3.14°S, 58.44°W
Report Text: SBIC 241500Z 01004KT 9999 BKN020 31/26 Q1012
Loading
Personal Weather Stations






























Interactive Weather Map
Tropical Storm Tracking
New forecast layout! Learn more

10-Day Weather Forecast

Advertisements
Track Severe Weather on mobile